Time;durP1;ratioP1;P1;durP2;ratioP2;P2;SDS_P1;SDS_P2;PMS_P1;PMS_P2;Temp;Humidity;BMP_temperature;BMP_pressure;BME280_temperature;BME280_humidity;BME280_pressure;Samples;Min_cycle;Max_cycle;Signal;HPM_P1;HPM_P2
2022/09/05 00:00:13;;;;;;;8.35;3.05;;;19.10;99.90;;;;;;5011554;28;20040;-71
2022/09/05 00:03:07;;;;;;;7.82;3.00;;;19.10;99.90;;;;;;5005901;28;20044;-72
2022/09/05 00:05:48;;;;;;;6.90;2.65;;;19.10;99.90;;;;;;5044672;28;20537;-70
2022/09/05 00:09:19;;;;;;;9.23;3.00;;;19.00;99.90;;;;;;5028516;28;20061;-72
2022/09/05 00:11:50;;;;;;;7.60;3.30;;;19.00;99.90;;;;;;4970009;28;20085;-72
2022/09/05 00:14:43;;;;;;;7.68;3.20;;;19.00;99.90;;;;;;5065046;28;20049;-70
2022/09/05 00:17:16;;;;;;;9.38;3.30;;;18.70;99.90;;;;;;5046799;28;20037;-70
2022/09/05 00:20:24;;;;;;;8.73;3.17;;;19.00;99.90;;;;;;5029544;28;20041;-71
2022/09/05 00:23:16;;;;;;;8.82;3.42;;;18.90;99.90;;;;;;5031301;28;20407;-72
2022/09/05 00:25:50;;;;;;;9.65;3.42;;;18.90;99.90;;;;;;5026014;28;20048;-71
2022/09/05 00:28:15;;;;;;;9.43;3.33;;;18.80;99.90;;;;;;5029692;28;20507;-72
2022/09/05 00:31:00;;;;;;;10.10;3.90;;;18.80;99.90;;;;;;5027649;28;20060;-71
2022/09/05 00:33:56;;;;;;;11.30;3.97;;;18.80;99.90;;;;;;5048938;28;20090;-71
2022/09/05 00:36:46;;;;;;;8.27;3.58;;;18.80;99.90;;;;;;5047899;28;20040;-71
2022/09/05 00:39:24;;;;;;;11.57;3.90;;;18.70;99.90;;;;;;5023998;28;20037;-71
2022/09/05 00:41:53;;;;;;;9.18;3.88;;;18.70;99.90;;;;;;5047613;28;20049;-71
2022/09/05 00:44:22;;;;;;;8.93;3.80;;;18.60;99.90;;;;;;5061288;28;20040;-71
2022/09/05 00:47:00;;;;;;;8.98;3.65;;;18.60;99.90;;;;;;5013214;28;20030;-72
2022/09/05 00:49:42;;;;;;;9.88;3.58;;;18.60;99.90;;;;;;5040454;28;20522;-71
2022/09/05 00:52:17;;;;;;;8.55;3.60;;;18.60;99.90;;;;;;5042463;28;20051;-70
2022/09/05 00:55:08;;;;;;;7.88;3.35;;;18.60;99.90;;;;;;4992898;28;20452;-71
2022/09/05 00:58:30;;;;;;;9.98;3.88;;;18.50;99.90;;;;;;5026425;28;20033;-73
2022/09/05 01:00:58;;;;;;;8.50;3.50;;;18.50;99.90;;;;;;4998219;28;20074;-71
2022/09/05 01:03:50;;;;;;;9.52;3.90;;;18.40;99.90;;;;;;4985358;28;20240;-70
2022/09/05 01:06:38;;;;;;;9.32;3.55;;;18.40;99.90;;;;;;5032309;28;20045;-71
2022/09/05 01:09:04;;;;;;;9.32;3.78;;;18.40;99.90;;;;;;4961790;28;20411;-70
2022/09/05 01:11:38;;;;;;;11.90;3.78;;;18.30;99.90;;;;;;5009123;28;20403;-70
2022/09/05 01:14:25;;;;;;;8.27;3.85;;;18.30;99.90;;;;;;5027709;28;20570;-70
2022/09/05 01:17:17;;;;;;;8.75;3.70;;;18.30;99.90;;;;;;5028743;28;20033;-72
2022/09/05 01:19:54;;;;;;;9.02;3.70;;;17.70;99.90;;;;;;5025020;28;20052;-72
2022/09/05 01:22:33;;;;;;;8.43;3.45;;;18.30;99.90;;;;;;5040561;28;20037;-72
2022/09/05 01:25:11;;;;;;;10.60;3.67;;;18.20;99.90;;;;;;5043836;28;20512;-71
2022/09/05 01:27:48;;;;;;;11.70;3.88;;;18.20;99.90;;;;;;5032789;28;20037;-71
2022/09/05 01:30:25;;;;;;;8.40;3.55;;;18.20;99.90;;;;;;5007119;28;20041;-71
2022/09/05 01:33:07;;;;;;;9.18;3.75;;;18.20;99.90;;;;;;5008160;28;20315;-72
2022/09/05 01:35:57;;;;;;;12.95;3.42;;;18.20;99.90;;;;;;5024496;28;20112;-71
2022/09/05 01:38:23;;;;;;;8.27;3.40;;;18.10;99.90;;;;;;5007863;28;20049;-71
2022/09/05 01:41:03;;;;;;;10.27;3.80;;;17.70;99.90;;;;;;5024552;28;20045;-71
2022/09/05 01:44:10;;;;;;;10.68;3.85;;;18.10;99.90;;;;;;5007746;28;20077;-71
2022/09/05 01:46:38;;;;;;;9.88;3.60;;;18.10;99.90;;;;;;4998494;28;20049;-71
2022/09/05 01:49:46;;;;;;;10.23;3.42;;;18.00;99.90;;;;;;5032747;28;20523;-71
2022/09/05 01:52:37;;;;;;;8.07;3.72;;;18.00;99.90;;;;;;5006747;28;20037;-71
2022/09/05 01:55:21;;;;;;;8.68;3.63;;;18.00;99.90;;;;;;5007230;28;20134;-72
2022/09/05 01:58:14;;;;;;;8.70;3.95;;;17.90;99.90;;;;;;5025504;28;20049;-72
2022/09/05 02:01:09;;;;;;;9.05;4.03;;;17.90;99.90;;;;;;5025409;28;20033;-71
2022/09/05 02:03:45;;;;;;;8.30;3.40;;;17.80;99.90;;;;;;4991240;28;20045;-72
2022/09/05 02:06:36;;;;;;;8.18;3.60;;;17.80;99.90;;;;;;4994515;28;20045;-72
2022/09/05 02:09:13;;;;;;;9.43;4.03;;;17.80;99.90;;;;;;5024239;28;20041;-71
2022/09/05 02:11:43;;;;;;;9.13;3.78;;;17.70;99.90;;;;;;4990954;28;20041;-72
2022/09/05 02:14:37;;;;;;;8.95;3.70;;;17.70;99.90;;;;;;5008606;28;20037;-71
2022/09/05 02:17:18;;;;;;;8.73;3.95;;;17.70;99.90;;;;;;5026093;28;20077;-71
2022/09/05 02:19:51;;;;;;;8.48;3.72;;;17.60;99.90;;;;;;5007159;28;20381;-73
2022/09/05 02:22:22;;;;;;;9.30;3.92;;;17.60;99.90;;;;;;4993337;28;20471;-71
2022/09/05 02:25:02;;;;;;;8.80;3.80;;;17.50;99.90;;;;;;5006705;28;20038;-71
2022/09/05 02:27:35;;;;;;;8.43;4.05;;;17.50;99.90;;;;;;5026899;28;20045;-72
2022/09/05 02:30:09;;;;;;;9.45;3.83;;;17.40;99.90;;;;;;4992040;28;20053;-71
2022/09/05 02:32:35;;;;;;;8.57;4.00;;;17.40;99.90;;;;;;5026558;28;20029;-71
2022/09/05 02:35:16;;;;;;;10.20;4.70;;;17.30;99.90;;;;;;5023471;28;20041;-71
2022/09/05 02:37:51;;;;;;;9.20;4.00;;;17.30;99.90;;;;;;4992198;28;20511;-71
2022/09/05 02:40:20;;;;;;;9.35;4.10;;;17.30;99.90;;;;;;5007252;28;20037;-71
2022/09/05 02:43:12;;;;;;;9.45;4.07;;;17.20;99.90;;;;;;4990197;28;20200;-71
2022/09/05 02:45:59;;;;;;;9.38;3.92;;;17.20;99.90;;;;;;5007735;28;20042;-71
2022/09/05 02:49:12;;;;;;;8.65;3.97;;;17.20;99.90;;;;;;5034125;28;20064;-70
2022/09/05 02:51:44;;;;;;;9.85;3.80;;;17.10;99.90;;;;;;5044170;28;20121;-71
2022/09/05 02:54:19;;;;;;;10.02;4.25;;;17.10;99.90;;;;;;5045634;28;20410;-71
2022/09/05 02:57:04;;;;;;;9.60;4.05;;;17.10;99.90;;;;;;5042990;28;20049;-71
2022/09/05 02:59:48;;;;;;;12.32;4.70;;;17.10;99.90;;;;;;5064927;28;20032;-72
2022/09/05 03:02:37;;;;;;;9.68;4.18;;;17.00;99.90;;;;;;5061220;28;20032;-71
2022/09/05 03:05:28;;;;;;;8.48;4.20;;;16.90;99.90;;;;;;5046576;28;20551;-71
2022/09/05 03:08:09;;;;;;;8.80;4.10;;;16.90;99.90;;;;;;5062845;28;20084;-72
2022/09/05 03:11:10;;;;;;;9.45;4.13;;;17.60;99.90;;;;;;5081554;28;20043;-72
2022/09/05 03:13:56;;;;;;;9.18;3.92;;;16.80;99.90;;;;;;5063635;28;20388;-72
2022/09/05 03:16:53;;;;;;;8.38;3.88;;;16.80;99.90;;;;;;5031135;28;20044;-72
2022/09/05 03:19:53;;;;;;;8.68;3.85;;;16.70;99.90;;;;;;5043162;28;20052;-72
2022/09/05 03:22:46;;;;;;;8.80;3.90;;;16.70;99.90;;;;;;5066881;28;20111;-72
2022/09/05 03:25:33;;;;;;;9.80;4.13;;;16.70;99.90;;;;;;5065955;28;20086;-72
2022/09/05 03:28:18;;;;;;;10.15;4.18;;;16.60;99.90;;;;;;5069750;28;20120;-72
2022/09/05 03:31:24;;;;;;;8.63;3.85;;;16.60;99.90;;;;;;5049374;28;20166;-71
2022/09/05 03:34:22;;;;;;;8.30;4.13;;;16.50;99.90;;;;;;5049148;28;20059;-71
2022/09/05 03:37:09;;;;;;;9.00;4.25;;;16.50;99.90;;;;;;5039056;28;20044;-71
2022/09/05 03:40:27;;;;;;;8.30;3.90;;;16.50;99.90;;;;;;5067007;28;20290;-71
2022/09/05 03:43:04;;;;;;;9.27;4.40;;;16.40;99.90;;;;;;4999773;28;20060;-71
2022/09/05 03:46:12;;;;;;;8.52;4.15;;;16.50;99.90;;;;;;5049467;28;20040;-71
2022/09/05 03:48:53;;;;;;;8.70;4.20;;;16.40;99.90;;;;;;5044004;28;20057;-71
2022/09/05 03:52:11;;;;;;;8.48;4.10;;;16.40;99.90;;;;;;5031105;28;20064;-71
2022/09/05 03:55:03;;;;;;;8.60;4.40;;;16.30;99.90;;;;;;5047035;28;20052;-71
2022/09/05 03:58:11;;;;;;;9.73;4.72;;;16.20;99.90;;;;;;5048150;28;20126;-71
2022/09/05 04:00:37;;;;;;;10.07;3.95;;;16.30;99.90;;;;;;5004377;28;20099;-71
2022/09/05 04:03:46;;;;;;;9.07;4.30;;;16.20;99.90;;;;;;5043956;28;20082;-71
2022/09/05 04:06:18;;;;;;;7.78;3.95;;;15.30;99.90;;;;;;5045726;28;20060;-71
2022/09/05 04:08:44;;;;;;;9.02;4.43;;;16.20;99.90;;;;;;5028300;28;20053;-71
2022/09/05 04:11:16;;;;;;;9.95;4.18;;;16.20;99.90;;;;;;5044558;28;20087;-71
2022/09/05 04:13:47;;;;;;;8.57;4.03;;;16.20;99.90;;;;;;5044966;28;20033;-71
2022/09/05 04:16:16;;;;;;;9.50;4.40;;;16.20;99.90;;;;;;5048515;28;20389;-70
2022/09/05 04:19:14;;;;;;;8.93;4.38;;;16.10;99.90;;;;;;5047160;28;20041;-70
2022/09/05 04:21:54;;;;;;;12.63;4.38;;;16.10;99.90;;;;;;5030807;28;20041;-71
2022/09/05 04:24:48;;;;;;;9.45;4.15;;;16.00;99.90;;;;;;5046412;28;20037;-71
2022/09/05 04:27:29;;;;;;;8.10;4.00;;;16.00;99.90;;;;;;5042425;28;20045;-73
2022/09/05 04:29:58;;;;;;;9.27;4.47;;;16.00;99.90;;;;;;5043544;28;20414;-73
2022/09/05 04:32:50;;;;;;;8.50;4.10;;;16.00;99.90;;;;;;5029813;28;20043;-70
2022/09/05 04:35:45;;;;;;;9.23;4.22;;;16.00;99.90;;;;;;5043016;28;20052;-70
2022/09/05 04:38:12;;;;;;;9.82;4.10;;;15.90;99.90;;;;;;5046528;28;20044;-73
2022/09/05 04:40:57;;;;;;;8.98;4.15;;;15.80;99.90;;;;;;5030428;28;20399;-70
2022/09/05 04:43:34;;;;;;;8.55;4.22;;;15.80;99.90;;;;;;5045267;28;20528;-71
2022/09/05 04:46:09;;;;;;;8.20;4.00;;;15.80;99.90;;;;;;5045870;28;20120;-72
2022/09/05 04:48:42;;;;;;;8.98;4.80;;;15.70;99.90;;;;;;5027725;28;20052;-71
2022/09/05 04:51:22;;;;;;;9.27;4.38;;;15.70;99.90;;;;;;5038530;28;20124;-71
2022/09/05 04:54:11;;;;;;;8.88;4.53;;;15.70;99.90;;;;;;5044876;28;20036;-73
2022/09/05 04:56:41;;;;;;;8.73;4.30;;;15.70;99.90;;;;;;5021485;28;20492;-72
2022/09/05 04:59:19;;;;;;;11.02;4.63;;;15.70;99.90;;;;;;5021452;28;20087;-72
2022/09/05 05:01:51;;;;;;;9.10;4.40;;;15.70;99.90;;;;;;5028739;28;20609;-71
2022/09/05 05:04:21;;;;;;;10.07;4.85;;;15.60;99.90;;;;;;5007157;28;20195;-71
2022/09/05 05:07:09;;;;;;;9.57;4.80;;;15.60;99.90;;;;;;5046751;28;20064;-71
2022/09/05 05:09:43;;;;;;;9.70;4.70;;;15.60;99.90;;;;;;5057870;28;20037;-71
2022/09/05 05:12:26;;;;;;;8.82;4.50;;;15.60;99.90;;;;;;5046245;28;20036;-71
2022/09/05 05:15:02;;;;;;;8.68;4.50;;;15.60;99.90;;;;;;5028461;28;20039;-71
2022/09/05 05:17:28;;;;;;;10.43;4.88;;;15.60;99.90;;;;;;5039799;28;20510;-71
2022/09/05 05:20:27;;;;;;;10.82;4.82;;;15.60;99.90;;;;;;5046333;28;20037;-72
2022/09/05 05:23:01;;;;;;;9.75;4.93;;;15.60;99.90;;;;;;5010374;28;20041;-73
2022/09/05 05:25:31;;;;;;;10.60;4.60;;;15.60;99.90;;;;;;5047340;28;20535;-71
2022/09/05 05:28:10;;;;;;;11.20;4.65;;;15.60;99.90;;;;;;5029352;28;20118;-72
2022/09/05 05:30:37;;;;;;;10.57;4.50;;;15.70;99.90;;;;;;5047490;28;20495;-72
2022/09/05 05:33:29;;;;;;;9.07;4.40;;;15.60;99.90;;;;;;4993180;28;20104;-72
2022/09/05 05:35:59;;;;;;;8.98;4.20;;;15.60;99.90;;;;;;5056041;28;20250;-72
2022/09/05 05:38:31;;;;;;;12.55;4.60;;;15.70;99.90;;;;;;5005243;28;20133;-72
2022/09/05 05:41:13;;;;;;;9.05;4.28;;;15.70;99.90;;;;;;5062703;28;20037;-71
2022/09/05 05:43:42;;;;;;;9.65;4.50;;;15.80;99.90;;;;;;5048699;28;20054;-71
2022/09/05 05:46:14;;;;;;;9.48;4.13;;;15.80;99.90;;;;;;5061335;28;20044;-72
2022/09/05 05:48:43;;;;;;;9.63;4.47;;;15.90;99.90;;;;;;5030818;28;20053;-72
2022/09/05 05:51:16;;;;;;;9.32;4.53;;;16.00;99.90;;;;;;5048158;28;20134;-71
2022/09/05 05:54:21;;;;;;;8.90;4.40;;;16.00;99.90;;;;;;5014441;28;20146;-71
2022/09/05 05:56:59;;;;;;;10.77;4.60;;;16.10;99.90;;;;;;5014389;28;20590;-71
2022/09/05 05:59:46;;;;;;;9.75;4.38;;;16.10;99.90;;;;;;5045550;28;20272;-70
2022/09/05 06:02:36;;;;;;;9.82;4.57;;;16.20;99.90;;;;;;5047486;28;20040;-71
2022/09/05 06:05:39;;;;;;;10.15;4.63;;;16.30;99.90;;;;;;5048100;28;20072;-71
2022/09/05 06:08:41;;;;;;;9.57;4.35;;;16.40;99.90;;;;;;5010068;28;20171;-72
2022/09/05 06:11:25;;;;;;;8.60;4.47;;;16.50;99.90;;;;;;5012346;28;20124;-71
2022/09/05 06:14:06;;;;;;;8.70;4.38;;;16.60;99.90;;;;;;5012811;28;20279;-71
2022/09/05 06:16:58;;;;;;;9.55;4.22;;;16.70;99.90;;;;;;5032898;28;20044;-71
2022/09/05 06:20:01;;;;;;;9.77;4.88;;;16.80;99.90;;;;;;5047238;28;20040;-71
2022/09/05 06:22:48;;;;;;;8.95;4.35;;;16.90;99.90;;;;;;5029186;28;20048;-71
2022/09/05 06:25:32;;;;;;;10.23;4.43;;;17.00;99.90;;;;;;5030068;28;20088;-71
2022/09/05 06:28:04;;;;;;;8.68;4.10;;;17.10;99.90;;;;;;5027952;28;20047;-72
2022/09/05 06:31:09;;;;;;;10.98;4.53;;;17.20;99.90;;;;;;5024707;28;20044;-71
2022/09/05 06:34:01;;;;;;;9.52;4.20;;;17.30;99.90;;;;;;5026849;28;20068;-72
2022/09/05 06:36:57;;;;;;;8.25;4.13;;;17.50;99.90;;;;;;5049036;28;20518;-72
2022/09/05 06:39:34;;;;;;;9.02;4.13;;;17.60;99.90;;;;;;5047397;28;20045;-72
2022/09/05 06:42:21;;;;;;;10.32;4.75;;;17.70;99.90;;;;;;5043446;28;20046;-72
2022/09/05 06:44:53;;;;;;;10.93;4.32;;;17.90;99.90;;;;;;5028647;28;20040;-72
2022/09/05 06:47:20;;;;;;;9.03;4.47;;;18.00;99.90;;;;;;5009587;28;20053;-72
2022/09/05 06:50:04;;;;;;;12.25;4.53;;;18.10;99.90;;;;;;5048749;28;20037;-72
2022/09/05 06:52:57;;;;;;;10.10;4.68;;;18.30;99.90;;;;;;5045580;28;20049;-72
2022/09/05 06:55:32;;;;;;;11.95;4.28;;;18.40;99.90;;;;;;5009188;28;20037;-72
2022/09/05 06:58:01;;;;;;;11.80;5.15;;;18.50;99.90;;;;;;5031345;28;20068;-72
2022/09/05 07:00:39;;;;;;;10.88;4.32;;;18.70;99.90;;;;;;5037149;28;20064;-71
2022/09/05 07:03:23;;;;;;;8.77;4.63;;;18.90;99.90;;;;;;5047342;28;20127;-71
2022/09/05 07:06:28;;;;;;;10.23;4.60;;;19.00;99.90;;;;;;5016029;28;20043;-72
2022/09/05 07:09:40;;;;;;;8.48;3.85;;;19.20;99.90;;;;;;5036141;28;20032;-71
2022/09/05 07:12:25;;;;;;;8.52;4.28;;;19.30;99.90;;;;;;5047471;28;20049;-72
2022/09/05 07:14:51;;;;;;;9.70;3.83;;;19.50;99.90;;;;;;5048951;28;20037;-72
2022/09/05 07:17:25;;;;;;;8.85;3.88;;;19.50;99.90;;;;;;5030952;28;20707;-72
2022/09/05 07:20:01;;;;;;;8.85;4.30;;;19.70;99.90;;;;;;5050804;28;20028;-72
2022/09/05 07:22:31;;;;;;;9.15;3.75;;;19.70;99.90;;;;;;5050550;28;20132;-72
2022/09/05 07:25:00;;;;;;;10.05;4.13;;;19.80;99.90;;;;;;5015447;28;20060;-72
2022/09/05 07:27:35;;;;;;;9.65;3.70;;;20.00;99.90;;;;;;5017240;28;20131;-72
2022/09/05 07:30:01;;;;;;;8.77;3.88;;;20.10;99.90;;;;;;5014104;28;20504;-72
2022/09/05 07:32:30;;;;;;;8.55;3.95;;;20.20;99.90;;;;;;5062747;28;20090;-71
2022/09/05 07:35:00;;;;;;;9.10;4.03;;;20.30;99.90;;;;;;5017966;28;20076;-71
2022/09/05 07:37:36;;;;;;;9.50;3.80;;;20.30;99.90;;;;;;5011826;28;20044;-72
2022/09/05 07:40:09;;;;;;;9.32;3.58;;;20.50;99.90;;;;;;5044898;28;20115;-73
2022/09/05 07:43:08;;;;;;;8.68;3.65;;;20.60;99.90;;;;;;5000691;28;20037;-72
2022/09/05 07:45:44;;;;;;;8.43;3.67;;;21.10;99.90;;;;;;5015827;28;20037;-72
2022/09/05 07:48:19;;;;;;;9.57;3.60;;;20.80;99.90;;;;;;5047014;28;20542;-72
2022/09/05 07:50:59;;;;;;;10.07;4.07;;;20.90;99.90;;;;;;5048569;28;20123;-71
2022/09/05 07:53:27;;;;;;;9.38;3.72;;;21.10;99.90;;;;;;5024810;28;20533;-72
2022/09/05 07:55:57;;;;;;;10.95;4.05;;;21.10;99.90;;;;;;5049762;28;20076;-72
2022/09/05 07:58:40;;;;;;;10.75;4.32;;;21.20;99.90;;;;;;5044246;28;20037;-72
2022/09/05 08:01:08;;;;;;;8.98;3.35;;;21.30;99.90;;;;;;5046568;28;20037;-72
2022/09/05 08:03:34;;;;;;;9.55;4.00;;;21.40;99.90;;;;;;5016538;28;20045;-72
2022/09/05 08:06:07;;;;;;;9.40;3.70;;;21.50;99.90;;;;;;5014789;28;20062;-71
2022/09/05 08:08:59;;;;;;;9.00;3.63;;;21.60;99.90;;;;;;5024870;28;20045;-72
2022/09/05 08:11:31;;;;;;;10.27;3.97;;;21.90;99.90;;;;;;5015248;28;20140;-71
2022/09/05 08:14:03;;;;;;;8.80;3.97;;;21.90;99.90;;;;;;5028879;28;20037;-72
2022/09/05 08:16:30;;;;;;;8.50;3.92;;;21.90;99.90;;;;;;5015946;28;20046;-71
2022/09/05 08:19:34;;;;;;;9.75;4.15;;;22.00;99.90;;;;;;5027763;28;20837;-71
2022/09/05 08:22:00;;;;;;;;;;;22.10;99.90;;;;;;5031128;28;20052;-72
2022/09/05 08:24:39;;;;;;;9.38;4.00;;;22.20;99.90;;;;;;5031697;28;19931;-72
2022/09/05 08:27:17;;;;;;;9.73;4.30;;;22.40;99.90;;;;;;5030860;28;20056;-73
2022/09/05 08:30:03;;;;;;;10.63;4.18;;;22.40;99.90;;;;;;5010365;28;20124;-71
2022/09/05 08:32:47;;;;;;;8.80;3.53;;;22.40;99.90;;;;;;5048097;28;20037;-72
2022/09/05 08:35:36;;;;;;;9.85;4.22;;;22.50;99.90;;;;;;5029700;28;20542;-72
2022/09/05 08:38:03;;;;;;;9.80;3.92;;;22.60;99.90;;;;;;5027787;28;20052;-71
2022/09/05 08:40:40;;;;;;;9.55;3.90;;;23.50;99.90;;;;;;5040422;28;20036;-72
2022/09/05 08:43:22;;;;;;;9.27;3.85;;;22.50;99.90;;;;;;5046647;28;20124;-71
2022/09/05 08:45:57;;;;;;;8.65;3.60;;;22.60;99.90;;;;;;5015251;28;20041;-72
2022/09/05 08:48:56;;;;;;;10.93;4.07;;;22.70;99.90;;;;;;5063816;28;20057;-72
2022/09/05 08:51:48;;;;;;;9.30;4.25;;;22.80;99.90;;;;;;5043047;28;20045;-73
2022/09/05 08:54:35;;;;;;;9.30;4.03;;;22.70;99.90;;;;;;5007905;28;20045;-72
2022/09/05 08:57:35;;;;;;;11.13;4.15;;;22.80;99.90;;;;;;5015044;28;20119;-72
2022/09/05 09:00:07;;;;;;;12.18;3.90;;;22.90;99.90;;;;;;5012707;28;20040;-72
2022/09/05 09:03:02;;;;;;;8.88;3.78;;;22.90;99.90;;;;;;5044810;28;20029;-73
2022/09/05 09:05:56;;;;;;;8.25;3.20;;;23.10;99.90;;;;;;5050779;28;20119;-72
2022/09/05 09:08:57;;;;;;;8.00;3.45;;;23.20;99.90;;;;;;5032215;28;20398;-72
2022/09/05 09:11:27;;;;;;;10.40;3.80;;;23.10;99.90;;;;;;5027689;28;20045;-72
2022/09/05 09:14:31;;;;;;;8.88;3.40;;;23.40;99.90;;;;;;5062243;28;20036;-72
2022/09/05 09:16:57;;;;;;;9.10;3.40;;;23.40;99.90;;;;;;5047056;28;20495;-72
2022/09/05 09:19:24;;;;;;;9.73;3.58;;;23.50;99.90;;;;;;5029635;28;20123;-72
2022/09/05 09:21:57;;;;;;;10.52;3.28;;;23.70;99.90;;;;;;5033854;28;20519;-72
2022/09/05 09:24:41;;;;;;;8.85;3.67;;;23.70;99.90;;;;;;5030817;28;20036;-72
2022/09/05 09:27:36;;;;;;;10.77;3.30;;;23.70;99.90;;;;;;5028055;28;20056;-71
2022/09/05 09:30:04;;;;;;;8.20;3.53;;;24.00;99.90;;;;;;5027915;28;20041;-71
2022/09/05 09:33:00;;;;;;;8.38;3.10;;;24.10;99.90;;;;;;5014943;28;20041;-72
2022/09/05 09:35:35;;;;;;;7.40;2.90;;;24.10;99.90;;;;;;5042977;28;20037;-72
2022/09/05 09:38:20;;;;;;;9.90;3.35;;;24.30;99.90;;;;;;5040166;28;20519;-72
2022/09/05 09:40:59;;;;;;;8.55;3.35;;;24.40;99.90;;;;;;5005516;28;20114;-72
2022/09/05 09:43:55;;;;;;;9.48;3.25;;;24.50;99.90;;;;;;5037338;28;20471;-72
2022/09/05 09:46:37;;;;;;;8.70;3.10;;;24.50;99.90;;;;;;5048050;28;20111;-72
2022/09/05 09:49:28;;;;;;;10.13;3.30;;;24.70;99.90;;;;;;5012133;28;20075;-72
2022/09/05 09:52:20;;;;;;;8.15;3.20;;;24.80;99.90;;;;;;5059200;28;20179;-73
2022/09/05 09:55:08;;;;;;;8.15;2.97;;;25.10;99.90;;;;;;5021422;28;20033;-71
2022/09/05 09:58:03;;;;;;;7.47;2.85;;;25.00;99.90;;;;;;5026443;28;20492;-72
2022/09/05 10:00:56;;;;;;;7.18;2.95;;;25.10;99.90;;;;;;5002139;28;20051;-72
2022/09/05 10:04:00;;;;;;;10.02;3.15;;;25.20;99.90;;;;;;5019925;28;20044;-72
2022/09/05 10:07:10;;;;;;;7.18;2.80;;;25.30;99.90;;;;;;5003904;28;20049;-72
2022/09/05 10:09:49;;;;;;;7.18;2.60;;;25.30;99.90;;;;;;4987033;28;20459;-72
2022/09/05 10:12:38;;;;;;;8.07;2.72;;;26.10;99.90;;;;;;5043248;28;20102;-72
2022/09/05 10:15:30;;;;;;;6.63;2.60;;;25.50;99.90;;;;;;5010804;28;20519;-72
2022/09/05 10:18:08;;;;;;;7.55;2.30;;;25.30;99.90;;;;;;5008130;28;20052;-73
2022/09/05 10:20:52;;;;;;;10.13;2.60;;;25.60;99.90;;;;;;5009946;28;20037;-73
2022/09/05 10:23:47;;;;;;;7.93;2.50;;;25.60;99.90;;;;;;5044424;28;20040;-73
2022/09/05 10:26:37;;;;;;;6.93;2.35;;;25.70;99.90;;;;;;5005860;28;20094;-73
2022/09/05 10:29:19;;;;;;;7.72;2.72;;;25.80;99.90;;;;;;5019845;28;20048;-73
2022/09/05 10:31:55;;;;;;;7.72;2.45;;;25.80;99.90;;;;;;5026967;28;20696;-72
2022/09/05 10:34:29;;;;;;;7.20;2.83;;;24.90;99.90;;;;;;5040877;28;20036;-72
2022/09/05 10:37:04;;;;;;;7.40;2.50;;;25.90;99.90;;;;;;5013226;28;21286;-73
2022/09/05 10:39:39;;;;;;;9.73;2.60;;;25.60;99.90;;;;;;5024492;28;20053;-72
2022/09/05 10:42:54;;;;;;;8.65;2.60;;;25.90;99.90;;;;;;5012739;28;20538;-73
2022/09/05 10:45:53;;;;;;;8.73;2.50;;;27.80;99.90;;;;;;4993181;28;20048;-73
2022/09/05 10:49:02;;;;;;;7.50;2.33;;;26.10;99.90;;;;;;5013630;28;20056;-72
2022/09/05 10:51:39;;;;;;;7.93;2.72;;;26.30;99.90;;;;;;5024428;28;20296;-71
2022/09/05 10:54:36;;;;;;;8.05;2.65;;;26.30;99.90;;;;;;5028246;28;20045;-73
2022/09/05 10:57:36;;;;;;;8.85;3.03;;;26.40;99.90;;;;;;5040126;28;20045;-72
2022/09/05 11:00:28;;;;;;;6.82;2.78;;;26.40;99.90;;;;;;5047568;28;20068;-72
2022/09/05 11:02:59;;;;;;;6.85;2.40;;;26.50;99.90;;;;;;5047617;28;20216;-72
2022/09/05 11:05:36;;;;;;;6.93;2.50;;;26.50;99.90;;;;;;5024858;28;20041;-73
2022/09/05 11:08:12;;;;;;;7.68;2.60;;;26.60;99.90;;;;;;5031167;28;20597;-73
2022/09/05 11:10:49;;;;;;;7.28;2.15;;;26.70;99.90;;;;;;5048312;28;20403;-73
2022/09/05 11:13:26;;;;;;;6.57;2.30;;;26.70;99.90;;;;;;5030734;28;20041;-73
2022/09/05 11:15:58;;;;;;;7.18;2.50;;;26.90;99.90;;;;;;5048933;28;20033;-73
2022/09/05 11:18:45;;;;;;;6.25;2.15;;;27.00;99.90;;;;;;5020203;28;20052;-73
2022/09/05 11:21:43;;;;;;;7.85;2.17;;;27.30;99.90;;;;;;5012014;28;20049;-73
2022/09/05 11:24:28;;;;;;;7.80;2.20;;;26.90;99.90;;;;;;5043394;28;20037;-73
2022/09/05 11:27:21;;;;;;;6.63;2.10;;;27.10;99.90;;;;;;5003757;28;20504;-73
2022/09/05 11:29:52;;;;;;;5.95;2.20;;;27.10;99.90;;;;;;5036038;28;20133;-71
2022/09/05 11:32:37;;;;;;;6.20;2.05;;;27.20;99.90;;;;;;5048505;28;20490;-72
2022/09/05 11:35:23;;;;;;;6.30;2.20;;;27.30;99.90;;;;;;5057883;28;20481;-73
2022/09/05 11:37:58;;;;;;;7.97;2.47;;;27.30;99.90;;;;;;5042820;28;20304;-73
2022/09/05 11:40:27;;;;;;;7.43;2.30;;;27.30;99.90;;;;;;5058997;28;20124;-72
2022/09/05 11:43:07;;;;;;;8.30;2.55;;;27.80;99.90;;;;;;5039222;28;20047;-72
2022/09/05 11:46:05;;;;;;;7.55;2.47;;;27.50;99.90;;;;;;5007790;28;20032;-72
2022/09/05 11:49:05;;;;;;;7.68;2.58;;;27.40;99.90;;;;;;5059529;28;21376;-72
2022/09/05 11:52:13;;;;;;;7.97;2.50;;;29.80;99.90;;;;;;5041975;28;20384;-73
2022/09/05 11:54:42;;;;;;;8.23;2.70;;;27.60;99.90;;;;;;5044158;28;20045;-72
2022/09/05 11:57:22;;;;;;;8.82;2.47;;;27.70;99.90;;;;;;5043998;28;20352;-72
2022/09/05 12:00:12;;;;;;;9.02;2.63;;;27.80;99.90;;;;;;5028744;28;20036;-71
2022/09/05 12:02:43;;;;;;;7.68;2.50;;;27.90;99.90;;;;;;5048854;28;20191;-72
2022/09/05 12:05:51;;;;;;;5.28;2.10;;;27.80;99.90;;;;;;5047175;28;20517;-72
2022/09/05 12:08:42;;;;;;;7.55;2.38;;;27.90;99.90;;;;;;5026967;28;20118;-72
2022/09/05 12:11:35;;;;;;;7.95;2.70;;;27.90;99.90;;;;;;5046641;28;20553;-71
2022/09/05 12:14:27;;;;;;;7.60;2.30;;;28.00;99.90;;;;;;5010185;28;20438;-73
2022/09/05 12:17:05;;;;;;;6.95;2.38;;;28.00;99.90;;;;;;5027121;28;20549;-72
2022/09/05 12:19:46;;;;;;;7.15;2.10;;;28.00;99.90;;;;;;5008666;28;20056;-73
2022/09/05 12:22:24;;;;;;;5.80;2.33;;;28.20;99.90;;;;;;5022863;28;20045;-72
2022/09/05 12:25:19;;;;;;;8.55;2.80;;;28.00;99.90;;;;;;5043505;28;20048;-74
2022/09/05 12:27:50;;;;;;;6.88;2.33;;;28.40;99.90;;;;;;5026370;28;20476;-72
2022/09/05 12:30:24;;;;;;;7.18;2.53;;;28.40;99.90;;;;;;5008070;28;20053;-72
2022/09/05 12:32:52;;;;;;;6.80;2.20;;;28.50;99.90;;;;;;5057305;28;20040;-72
2022/09/05 12:35:41;;;;;;;6.05;2.40;;;28.50;99.90;;;;;;5025982;28;20389;-72
2022/09/05 12:38:37;;;;;;;7.10;2.47;;;28.40;99.90;;;;;;5045658;28;20076;-72
2022/09/05 12:41:09;;;;;;;8.02;2.42;;;28.30;99.90;;;;;;5015571;28;20175;-72
2022/09/05 12:43:44;;;;;;;10.38;2.60;;;28.30;99.90;;;;;;5025666;28;20062;-72
2022/09/05 12:46:26;;;;;;;6.85;2.60;;;28.40;99.90;;;;;;5043982;28;20029;-74
2022/09/05 12:49:30;;;;;;;11.38;2.78;;;28.40;99.90;;;;;;5057119;28;20079;-73
2022/09/05 12:52:14;;;;;;;7.40;2.78;;;28.40;99.90;;;;;;5022481;28;20188;-73
2022/09/05 12:54:53;;;;;;;7.65;2.40;;;28.30;99.90;;;;;;5009524;28;20040;-73
2022/09/05 12:57:28;;;;;;;6.72;2.35;;;28.30;99.90;;;;;;5043000;28;20171;-73
2022/09/05 13:00:01;;;;;;;8.77;2.72;;;28.40;99.90;;;;;;5023312;28;20403;-72
2022/09/05 13:02:31;;;;;;;6.78;2.42;;;28.60;99.90;;;;;;5042995;28;20082;-72
2022/09/05 13:05:03;;;;;;;5.40;2.20;;;28.40;99.90;;;;;;5040611;28;20109;-72
2022/09/05 13:07:41;;;;;;;7.27;2.50;;;28.40;99.90;;;;;;5041839;28;20075;-72
2022/09/05 13:10:32;;;;;;;6.95;2.58;;;28.40;99.90;;;;;;5008756;28;20299;-72
2022/09/05 13:13:06;;;;;;;7.07;2.63;;;28.30;99.90;;;;;;5019823;28;20550;-72
2022/09/05 13:15:36;;;;;;;7.07;2.58;;;28.40;99.90;;;;;;5043987;28;20033;-73
2022/09/05 13:18:08;;;;;;;14.95;2.58;;;28.20;99.90;;;;;;5008356;28;20276;-73
2022/09/05 13:20:36;;;;;;;7.88;2.30;;;28.10;99.90;;;;;;5012155;28;20041;-72
2022/09/05 13:23:07;;;;;;;6.28;2.55;;;27.90;99.90;;;;;;5043053;28;20059;-72
2022/09/05 13:25:35;;;;;;;7.57;2.45;;;27.70;99.90;;;;;;5022203;28;20522;-72
2022/09/05 13:28:05;;;;;;;8.60;2.60;;;27.70;99.90;;;;;;4995533;28;20051;-72
2022/09/05 13:30:36;;;;;;;6.53;2.53;;;27.80;99.90;;;;;;5043464;28;20029;-72
2022/09/05 13:33:36;;;;;;;6.85;2.72;;;27.80;99.90;;;;;;5025062;28;20120;-72
2022/09/05 13:36:09;;;;;;;6.45;2.40;;;28.10;99.90;;;;;;5014213;28;20053;-72
2022/09/05 13:38:43;;;;;;;6.63;2.30;;;30.60;99.90;;;;;;5056893;28;20064;-72
2022/09/05 13:41:18;;;;;;;7.70;2.63;;;28.50;99.90;;;;;;5025833;28;20045;-72
2022/09/05 13:43:44;;;;;;;6.47;2.38;;;28.70;99.90;;;;;;5026127;28;20456;-72
2022/09/05 13:46:25;;;;;;;5.85;2.25;;;28.90;99.90;;;;;;5008008;28;20049;-72
2022/09/05 13:48:55;;;;;;;7.10;2.42;;;28.90;99.90;;;;;;5001837;28;20057;-73
2022/09/05 13:51:44;;;;;;;9.50;2.65;;;29.00;99.70;;;;;;5019105;28;20041;-73
2022/09/05 13:54:35;;;;;;;7.40;2.40;;;29.10;99.30;;;;;;5019848;28;20103;-72
2022/09/05 13:57:20;;;;;;;9.27;2.30;;;29.00;99.50;;;;;;5005780;28;20053;-72
2022/09/05 14:00:05;;;;;;;6.80;2.30;;;28.60;99.50;;;;;;4969606;28;20050;-72
2022/09/05 14:03:09;;;;;;;7.40;2.40;;;28.60;99.60;;;;;;4993556;28;20041;-72
2022/09/05 14:05:57;;;;;;;5.90;2.22;;;29.20;99.50;;;;;;4965859;28;20049;-72